HISTORICAL SENSOR DATA

Sensor Data Report

DB LIVE
CURRENT TIME--:--:--
DEVICE NETWORK Gateway Status
13 ESP · realtime ~1s · history 60s
Weather WS-MOD-01
OFFLINE
Actuator ACT-MOD-01
OFFLINE
Mainboard L3 MB-L3-01
ONLINE
Mainboard L5 MB-L5-01
OFFLINE
Remote AC AC-REMOTE-01
OFFLINE
PZEM L3-01 PWR-L3-01
OFFLINE
PZEM L3-02 PWR-L3-02
OFFLINE
PZEM L3-03 PWR-L3-03
OFFLINE
PZEM L3-04 PWR-L3-04
OFFLINE
PZEM L5-01 PWR-L5-01
OFFLINE
PZEM L5-02 PWR-L5-02
OFFLINE
PZEM L5-03 PWR-L5-03
OFFLINE
PZEM L5-04 PWR-L5-04
OFFLINE
REPORT FILTER

Periode & Sensor

DATABASE HISTORY
RESET
QUICK RANGE Hari ini 7 hari 30 hari
PERIODE04 Aug 2026sampai 02 Sep 2026
TOTAL DATA40,278sensor readings
MINIMUM-0.50sesuai filter
AVERAGE56.78sesuai filter
MAXIMUM998.00sesuai filter
REPORT RESULT

Data Sensor

04/08/2026 — 02/09/2026 EXPORT CSV
NOTANGGALWAKTUDEVICECHANNELSENSORVALUEUNIT
11601 02/09/2026 14:54:52 MB-L3-01Mainboard Lantai 3 L3-ST-01 Surface Temperature 1 29.90 °C
11602 02/09/2026 14:54:52 MB-L3-01Mainboard Lantai 3 L3-AI-05 Analog Input 5 3.12 V
11603 02/09/2026 14:54:52 MB-L3-01Mainboard Lantai 3 L3-SHT-03-T SHT20 3 Temperature 31.80 °C
11604 02/09/2026 14:54:52 MB-L5-01Mainboard Lantai 5 L5-AI-06 Analog Input 6 3.05 V
11605 02/09/2026 14:54:52 MB-L3-01Mainboard Lantai 3 L3-SHT-02-T SHT20 2 Temperature 32.10 °C
11606 02/09/2026 14:54:52 MB-L5-01Mainboard Lantai 5 L5-SHT-02-RH SHT20 2 Humidity 48.40 %RH
11607 02/09/2026 14:54:52 MB-L5-01Mainboard Lantai 5 L5-LUX-04 Illuminance / LUX 4 297.60 lux
11608 02/09/2026 14:54:52 MB-L3-01Mainboard Lantai 3 L3-BGT-03 Black Globe Temperature 3 29.30 °C
11609 02/09/2026 14:54:52 MB-L5-01Mainboard Lantai 5 L5-AI-05 Analog Input 5 3.05 V
11610 02/09/2026 14:54:52 MB-L5-01Mainboard Lantai 5 L5-SHT-03-T SHT20 3 Temperature 32.20 °C
11611 02/09/2026 14:54:52 MB-L3-01Mainboard Lantai 3 L3-ST-02 Surface Temperature 2 30.10 °C
11612 02/09/2026 14:54:52 MB-L5-01Mainboard Lantai 5 L5-SHT-02-T SHT20 2 Temperature 32.20 °C
11613 02/09/2026 14:54:52 MB-L5-01Mainboard Lantai 5 L5-SHT-03-RH SHT20 3 Humidity 49.00 %RH
11614 02/09/2026 14:54:52 MB-L5-01Mainboard Lantai 5 L5-AI-04 Analog Input 4 3.05 V
11615 02/09/2026 14:54:52 MB-L5-01Mainboard Lantai 5 L5-LUX-05 Illuminance / LUX 5 565.80 lux
11616 02/09/2026 14:54:52 MB-L3-01Mainboard Lantai 3 L3-AI-06 Analog Input 6 3.12 V
11617 02/09/2026 14:54:52 MB-L3-01Mainboard Lantai 3 L3-LUX-06 Illuminance / LUX 6 32.10 lux
11618 02/09/2026 14:54:52 MB-L5-01Mainboard Lantai 5 L5-RAD-01 Radiation 1 2.00 W/m²
11619 02/09/2026 14:54:52 MB-L5-01Mainboard Lantai 5 L5-AI-03 Analog Input 3 3.05 V
11620 02/09/2026 14:54:52 MB-L3-01Mainboard Lantai 3 L3-AI-01 Analog Input 1 3.12 V
11621 02/09/2026 14:54:52 MB-L5-01Mainboard Lantai 5 L5-AI-02 Analog Input 2 3.05 V
11622 02/09/2026 14:54:52 MB-L3-01Mainboard Lantai 3 L3-HFT-01 Heat Flow Temperature 1 29.50 °C
11623 02/09/2026 14:54:52 MB-L3-01Mainboard Lantai 3 L3-LUX-05 Illuminance / LUX 5 31.10 lux
11624 02/09/2026 14:54:52 MB-L5-01Mainboard Lantai 5 L5-AI-01 Analog Input 1 3.05 V
11625 02/09/2026 14:54:51 MB-L5-01Mainboard Lantai 5 L5-HFT-02 Heat Flow Temperature 2 29.90 °C
11626 02/09/2026 14:54:51 MB-L5-01Mainboard Lantai 5 L5-HFT-01 Heat Flow Temperature 1 30.00 °C
11627 02/09/2026 14:54:51 MB-L5-01Mainboard Lantai 5 L5-LUX-06 Illuminance / LUX 6 289.80 lux
11628 02/09/2026 14:54:51 MB-L5-01Mainboard Lantai 5 L5-ST-02 Surface Temperature 2 30.30 °C
11629 02/09/2026 14:54:51 MB-L5-01Mainboard Lantai 5 L5-LUX-02 Illuminance / LUX 2 232.80 lux
11630 02/09/2026 14:54:51 MB-L5-01Mainboard Lantai 5 L5-ST-01 Surface Temperature 1 30.00 °C
11631 02/09/2026 14:54:51 MB-L5-01Mainboard Lantai 5 L5-SHT-01-T SHT20 1 Temperature 32.30 °C
11632 02/09/2026 14:54:51 MB-L5-01Mainboard Lantai 5 L5-RAD-02 Radiation 2 1.00 W/m²
11633 02/09/2026 14:54:51 MB-L5-01Mainboard Lantai 5 L5-AI-06 Analog Input 6 3.05 V
11634 02/09/2026 14:54:51 MB-L5-01Mainboard Lantai 5 L5-SHT-02-RH SHT20 2 Humidity 48.20 %RH
11635 02/09/2026 14:54:51 MB-L5-01Mainboard Lantai 5 L5-LUX-04 Illuminance / LUX 4 313.90 lux
11636 02/09/2026 14:54:51 MB-L5-01Mainboard Lantai 5 L5-AI-05 Analog Input 5 3.05 V
11637 02/09/2026 14:54:51 MB-L5-01Mainboard Lantai 5 L5-SHT-03-T SHT20 3 Temperature 32.10 °C
11638 02/09/2026 14:54:51 MB-L5-01Mainboard Lantai 5 L5-SHT-02-T SHT20 2 Temperature 32.30 °C
11639 02/09/2026 14:54:51 MB-L5-01Mainboard Lantai 5 L5-SHT-03-RH SHT20 3 Humidity 49.00 %RH
11640 02/09/2026 14:54:51 MB-L5-01Mainboard Lantai 5 L5-AI-04 Analog Input 4 3.05 V
11641 02/09/2026 14:54:51 MB-L5-01Mainboard Lantai 5 L5-RAD-01 Radiation 1 2.00 W/m²
11642 02/09/2026 14:54:51 MB-L5-01Mainboard Lantai 5 L5-AI-03 Analog Input 3 3.05 V
11643 02/09/2026 14:54:51 MB-L5-01Mainboard Lantai 5 L5-AI-02 Analog Input 2 3.05 V
11644 02/09/2026 14:54:51 MB-L5-01Mainboard Lantai 5 L5-AI-01 Analog Input 1 3.05 V
11645 02/09/2026 14:54:51 MB-L5-01Mainboard Lantai 5 L5-SHT-01-RH SHT20 1 Humidity 48.30 %RH
11646 02/09/2026 14:54:51 MB-L5-01Mainboard Lantai 5 L5-BGT-03 Black Globe Temperature 3 29.70 °C
11647 02/09/2026 14:54:51 MB-L5-01Mainboard Lantai 5 L5-LUX-01 Illuminance / LUX 1 248.40 lux
11648 02/09/2026 14:54:51 MB-L5-01Mainboard Lantai 5 L5-LUX-03 Illuminance / LUX 3 196.40 lux
11649 02/09/2026 14:54:51 MB-L5-01Mainboard Lantai 5 L5-BGT-02 Black Globe Temperature 2 29.60 °C
11650 02/09/2026 14:54:51 MB-L5-01Mainboard Lantai 5 L5-BGT-01 Black Globe Temperature 1 29.60 °C
11651 02/09/2026 14:54:50 MB-L3-01Mainboard Lantai 3 L3-SHT-02-RH SHT20 2 Humidity 48.40 %RH
11652 02/09/2026 14:54:50 MB-L3-01Mainboard Lantai 3 L3-BGT-01 Black Globe Temperature 1 29.70 °C
11653 02/09/2026 14:54:50 MB-L3-01Mainboard Lantai 3 L3-LUX-01 Illuminance / LUX 1 14.90 lux
11654 02/09/2026 14:54:50 MB-L3-01Mainboard Lantai 3 L3-RAD-02 Radiation 2 1.00 W/m²
11655 02/09/2026 14:54:50 MB-L3-01Mainboard Lantai 3 L3-AI-04 Analog Input 4 3.12 V
11656 02/09/2026 14:54:50 MB-L3-01Mainboard Lantai 3 L3-BGT-02 Black Globe Temperature 2 29.80 °C
11657 02/09/2026 14:54:50 MB-L3-01Mainboard Lantai 3 L3-RAD-01 Radiation 1 1.00 W/m²
11658 02/09/2026 14:54:50 MB-L3-01Mainboard Lantai 3 L3-SHT-03-RH SHT20 3 Humidity 49.00 %RH
11659 02/09/2026 14:54:50 MB-L3-01Mainboard Lantai 3 L3-ST-01 Surface Temperature 1 29.80 °C
11660 02/09/2026 14:54:50 MB-L3-01Mainboard Lantai 3 L3-AI-05 Analog Input 5 3.12 V
11661 02/09/2026 14:54:50 MB-L3-01Mainboard Lantai 3 L3-SHT-03-T SHT20 3 Temperature 31.90 °C
11662 02/09/2026 14:54:50 MB-L3-01Mainboard Lantai 3 L3-SHT-02-T SHT20 2 Temperature 32.00 °C
11663 02/09/2026 14:54:50 MB-L3-01Mainboard Lantai 3 L3-BGT-03 Black Globe Temperature 3 29.20 °C
11664 02/09/2026 14:54:50 MB-L3-01Mainboard Lantai 3 L3-ST-02 Surface Temperature 2 30.10 °C
11665 02/09/2026 14:54:50 MB-L3-01Mainboard Lantai 3 L3-AI-06 Analog Input 6 3.12 V
11666 02/09/2026 14:54:50 MB-L3-01Mainboard Lantai 3 L3-LUX-06 Illuminance / LUX 6 32.30 lux
11667 02/09/2026 14:54:50 MB-L3-01Mainboard Lantai 3 L3-AI-01 Analog Input 1 3.12 V
11668 02/09/2026 14:54:50 MB-L3-01Mainboard Lantai 3 L3-HFT-01 Heat Flow Temperature 1 29.60 °C
11669 02/09/2026 14:54:50 MB-L3-01Mainboard Lantai 3 L3-LUX-05 Illuminance / LUX 5 23.20 lux
11670 02/09/2026 14:54:50 MB-L3-01Mainboard Lantai 3 L3-AI-02 Analog Input 2 3.12 V
11671 02/09/2026 14:54:50 MB-L3-01Mainboard Lantai 3 L3-LUX-04 Illuminance / LUX 4 58.50 lux
11672 02/09/2026 14:54:50 MB-L3-01Mainboard Lantai 3 L3-HFT-02 Heat Flow Temperature 2 29.10 °C
11673 02/09/2026 14:54:50 MB-L3-01Mainboard Lantai 3 L3-SHT-01-T SHT20 1 Temperature 32.10 °C
11674 02/09/2026 14:54:50 MB-L3-01Mainboard Lantai 3 L3-LUX-02 Illuminance / LUX 2 26.70 lux
11675 02/09/2026 14:54:50 MB-L3-01Mainboard Lantai 3 L3-SHT-01-RH SHT20 1 Humidity 48.40 %RH
11676 02/09/2026 14:54:50 MB-L3-01Mainboard Lantai 3 L3-AI-03 Analog Input 3 3.12 V
11677 02/09/2026 14:54:49 MB-L5-01Mainboard Lantai 5 L5-ST-01 Surface Temperature 1 30.00 °C
11678 02/09/2026 14:54:49 MB-L5-01Mainboard Lantai 5 L5-SHT-01-T SHT20 1 Temperature 32.40 °C
11679 02/09/2026 14:54:49 MB-L5-01Mainboard Lantai 5 L5-RAD-02 Radiation 2 1.00 W/m²
11680 02/09/2026 14:54:49 MB-L5-01Mainboard Lantai 5 L5-AI-06 Analog Input 6 3.05 V
11681 02/09/2026 14:54:49 MB-L5-01Mainboard Lantai 5 L5-SHT-02-RH SHT20 2 Humidity 48.10 %RH
11682 02/09/2026 14:54:49 MB-L5-01Mainboard Lantai 5 L5-LUX-04 Illuminance / LUX 4 296.60 lux
11683 02/09/2026 14:54:49 MB-L5-01Mainboard Lantai 5 L5-AI-05 Analog Input 5 3.05 V
11684 02/09/2026 14:54:49 MB-L5-01Mainboard Lantai 5 L5-SHT-03-T SHT20 3 Temperature 32.20 °C
11685 02/09/2026 14:54:49 MB-L5-01Mainboard Lantai 5 L5-SHT-02-T SHT20 2 Temperature 32.20 °C
11686 02/09/2026 14:54:49 MB-L5-01Mainboard Lantai 5 L5-SHT-03-RH SHT20 3 Humidity 49.00 %RH
11687 02/09/2026 14:54:49 MB-L5-01Mainboard Lantai 5 L5-AI-04 Analog Input 4 3.05 V
11688 02/09/2026 14:54:49 MB-L5-01Mainboard Lantai 5 L5-RAD-01 Radiation 1 2.00 W/m²
11689 02/09/2026 14:54:49 MB-L5-01Mainboard Lantai 5 L5-AI-03 Analog Input 3 3.05 V
11690 02/09/2026 14:54:49 MB-L5-01Mainboard Lantai 5 L5-AI-02 Analog Input 2 3.05 V
11691 02/09/2026 14:54:49 MB-L5-01Mainboard Lantai 5 L5-AI-01 Analog Input 1 3.05 V
11692 02/09/2026 14:54:49 MB-L5-01Mainboard Lantai 5 L5-LUX-05 Illuminance / LUX 5 563.70 lux
11693 02/09/2026 14:54:49 MB-L5-01Mainboard Lantai 5 L5-SHT-01-RH SHT20 1 Humidity 48.20 %RH
11694 02/09/2026 14:54:49 MB-L5-01Mainboard Lantai 5 L5-BGT-03 Black Globe Temperature 3 29.60 °C
11695 02/09/2026 14:54:49 MB-L5-01Mainboard Lantai 5 L5-LUX-03 Illuminance / LUX 3 189.30 lux
11696 02/09/2026 14:54:49 MB-L5-01Mainboard Lantai 5 L5-BGT-02 Black Globe Temperature 2 29.60 °C
11697 02/09/2026 14:54:49 MB-L5-01Mainboard Lantai 5 L5-BGT-01 Black Globe Temperature 1 29.60 °C
11698 02/09/2026 14:54:49 MB-L5-01Mainboard Lantai 5 L5-HFT-02 Heat Flow Temperature 2 29.80 °C
11699 02/09/2026 14:54:49 MB-L5-01Mainboard Lantai 5 L5-HFT-01 Heat Flow Temperature 1 29.90 °C
11700 02/09/2026 14:54:49 MB-L5-01Mainboard Lantai 5 L5-LUX-06 Illuminance / LUX 6 281.10 lux
Menampilkan maksimal 100 data per halaman